createdAt,value
2023-03-10T00:01:20.026Z,1.80
2023-03-10T00:03:48.111Z,1.80
2023-03-10T00:06:17.538Z,1.60
2023-03-10T00:08:45.713Z,2.30
2023-03-10T00:11:13.852Z,1.77
2023-03-10T00:13:42.177Z,2.00
2023-03-10T00:16:11.385Z,1.53
2023-03-10T00:18:39.459Z,1.40
2023-03-10T00:21:07.644Z,1.10
2023-03-10T00:23:37.440Z,1.10
2023-03-10T00:26:06.019Z,1.10
2023-03-10T00:28:34.093Z,0.90
2023-03-10T00:31:03.379Z,1.00
2023-03-10T00:33:32.447Z,1.40
2023-03-10T00:36:14.864Z,1.00
2023-03-10T00:38:43.346Z,1.17
2023-03-10T00:41:15.668Z,1.17
2023-03-10T00:43:43.913Z,0.97
2023-03-10T00:46:15.161Z,1.20
2023-03-10T00:48:43.236Z,1.20
2023-03-10T00:51:11.126Z,1.30
2023-03-10T00:53:40.070Z,1.33
2023-03-10T00:56:18.850Z,1.00
2023-03-10T00:58:47.198Z,1.00
2023-03-10T01:01:17.237Z,1.13
2023-03-10T01:03:45.204Z,1.50
2023-03-10T01:06:13.556Z,1.00
2023-03-10T01:08:41.422Z,1.13
2023-03-10T01:11:09.507Z,1.30
2023-03-10T01:13:38.783Z,1.40
2023-03-10T01:16:08.746Z,1.10
2023-03-10T01:18:36.717Z,1.20
2023-03-10T01:21:05.219Z,1.20
2023-03-10T01:23:33.077Z,1.20
2023-03-10T01:26:01.053Z,1.47
2023-03-10T01:28:28.969Z,1.00
2023-03-10T01:30:56.938Z,1.07
2023-03-10T01:33:24.804Z,0.87
2023-03-10T01:35:52.773Z,1.07
2023-03-10T01:38:20.788Z,1.10
2023-03-10T01:40:50.019Z,0.80
2023-03-10T01:43:18.875Z,1.20
2023-03-10T01:45:46.729Z,0.90
2023-03-10T01:48:15.793Z,1.00
2023-03-10T01:50:44.288Z,1.10
2023-03-10T01:53:12.116Z,1.30
2023-03-10T01:55:42.921Z,0.90
2023-03-10T01:58:12.533Z,0.90
2023-03-10T02:00:40.408Z,0.63
2023-03-10T02:03:14.096Z,1.43
2023-03-10T02:05:47.940Z,1.30
2023-03-10T02:08:16.447Z,0.80
2023-03-10T02:10:44.391Z,0.80
2023-03-10T02:13:12.693Z,1.10
2023-03-10T02:15:40.816Z,0.83
2023-03-10T02:18:09.861Z,1.03
2023-03-10T02:20:42.292Z,0.80
2023-03-10T02:23:10.630Z,1.13
2023-03-10T02:25:48.240Z,0.77
2023-03-10T02:28:16.210Z,0.57
2023-03-10T02:30:49.434Z,0.87
2023-03-10T02:33:23.016Z,1.10
2023-03-10T02:35:51.017Z,0.80
2023-03-10T02:38:19.061Z,0.73
2023-03-10T02:40:51.458Z,0.60
2023-03-10T02:43:22.676Z,0.80
2023-03-10T02:45:50.748Z,0.93
2023-03-10T02:48:28.376Z,0.60
2023-03-10T02:50:57.102Z,0.80
2023-03-10T02:53:26.859Z,0.77
2023-03-10T02:55:56.415Z,0.67
2023-03-10T02:58:25.096Z,0.87
2023-03-10T03:00:53.149Z,0.40
2023-03-10T03:03:21.707Z,0.90
2023-03-10T03:05:50.624Z,0.30
2023-03-10T03:08:18.832Z,0.47
2023-03-10T03:10:46.959Z,0.50
2023-03-10T03:13:14.889Z,0.40
2023-03-10T03:15:42.770Z,0.50
2023-03-10T03:18:10.650Z,0.43
2023-03-10T03:20:39.117Z,0.63
2023-03-10T03:23:07.069Z,0.50
2023-03-10T03:25:37.103Z,0.60
2023-03-10T03:28:05.911Z,0.40
2023-03-10T03:30:34.504Z,0.40
2023-03-10T03:33:03.517Z,0.50
2023-03-10T03:35:33.905Z,0.43
2023-03-10T03:38:02.003Z,0.70
2023-03-10T03:40:34.839Z,0.30
2023-03-10T03:43:02.787Z,0.33
2023-03-10T03:45:31.297Z,0.20
2023-03-10T03:47:59.650Z,0.40
2023-03-10T03:50:27.645Z,0.20
2023-03-10T03:52:55.591Z,0.40
2023-03-10T03:55:23.656Z,0.23
2023-03-10T03:57:51.566Z,0.30
2023-03-10T04:00:21.649Z,0.20
2023-03-10T04:02:49.703Z,0.10
2023-03-10T04:05:17.725Z,0.20
2023-03-10T04:07:45.706Z,0.20
2023-03-10T04:10:15.004Z,0.20
2023-03-10T04:12:42.824Z,0.20
2023-03-10T04:15:11.102Z,0.20
2023-03-10T04:17:39.097Z,0.30
2023-03-10T04:20:08.532Z,0.23
2023-03-10T04:22:37.115Z,0.20
2023-03-10T04:25:05.568Z,0.20
2023-03-10T04:27:33.583Z,0.30
2023-03-10T04:30:01.440Z,0.27
2023-03-10T04:32:29.384Z,0.20
2023-03-10T04:34:57.498Z,0.40
2023-03-10T04:37:25.320Z,0.40
2023-03-10T04:39:53.164Z,0.10
2023-03-10T04:42:21.060Z,0.47
2023-03-10T04:44:49.044Z,0.27
2023-03-10T04:47:16.909Z,0.20
2023-03-10T04:49:44.913Z,0.30
2023-03-10T04:52:12.810Z,0.60
2023-03-10T04:54:40.689Z,0.40
2023-03-10T04:57:08.566Z,0.33
2023-03-10T04:59:36.499Z,0.20
2023-03-10T05:02:04.584Z,0.30
2023-03-10T05:04:32.545Z,0.37
2023-03-10T05:07:00.534Z,0.40
2023-03-10T05:09:28.526Z,0.83
2023-03-10T05:11:56.354Z,0.40
2023-03-10T05:14:24.163Z,0.40
2023-03-10T05:16:52.000Z,0.40
2023-03-10T05:19:19.895Z,0.50
2023-03-10T05:21:47.785Z,0.47
2023-03-10T05:24:15.792Z,0.63
2023-03-10T05:26:43.677Z,0.50
2023-03-10T05:29:11.759Z,0.53
2023-03-10T05:31:39.783Z,0.60
2023-03-10T05:34:07.644Z,0.37
2023-03-10T05:36:35.488Z,0.50
2023-03-10T05:39:03.580Z,0.53
2023-03-10T05:41:31.378Z,0.80
2023-03-10T05:43:59.161Z,1.00
2023-03-10T05:46:27.247Z,1.40
2023-03-10T05:48:58.539Z,1.83
2023-03-10T05:51:26.459Z,2.00
2023-03-10T05:53:54.395Z,4.00
2023-03-10T05:56:25.306Z,2.80
2023-03-10T05:58:53.278Z,2.63
2023-03-10T06:01:21.265Z,1.33
2023-03-10T06:03:49.168Z,1.60
2023-03-10T06:06:17.297Z,2.17
2023-03-10T06:08:45.158Z,1.33
2023-03-10T06:11:13.707Z,3.50
2023-03-10T06:13:41.935Z,1.20
2023-03-10T06:16:09.875Z,1.20
2023-03-10T06:18:37.732Z,1.60
2023-03-10T06:21:07.415Z,2.27
2023-03-10T06:23:35.433Z,1.10
2023-03-10T06:26:08.126Z,1.10
2023-03-10T06:28:38.445Z,1.10
2023-03-10T06:31:15.868Z,1.07
2023-03-10T06:33:44.138Z,1.17
2023-03-10T06:36:13.052Z,1.40
2023-03-10T06:38:41.047Z,1.37
2023-03-10T06:41:09.240Z,1.43
2023-03-10T06:43:37.249Z,1.20
2023-03-10T06:46:07.112Z,1.10
2023-03-10T06:48:35.471Z,1.30
2023-03-10T06:51:03.496Z,1.03
2023-03-10T06:53:31.379Z,0.80
2023-03-10T06:55:59.912Z,0.90
2023-03-10T06:58:28.326Z,1.03
2023-03-10T07:00:56.327Z,1.10
2023-03-10T07:03:26.363Z,1.17
2023-03-10T07:05:54.604Z,1.00
2023-03-10T07:08:22.599Z,0.50
2023-03-10T07:10:51.837Z,0.50
2023-03-10T07:13:20.024Z,0.30
2023-03-10T07:15:48.245Z,0.20
2023-03-10T07:18:16.324Z,0.20
2023-03-10T07:20:46.399Z,0.30
2023-03-10T07:23:14.536Z,0.10
2023-03-10T07:25:42.475Z,0.20
2023-03-10T07:28:10.593Z,0.30
2023-03-10T07:30:39.825Z,0.40
2023-03-10T07:33:07.809Z,0.30
2023-03-10T07:35:37.073Z,0.10
2023-03-10T07:38:06.120Z,0.30
2023-03-10T07:40:34.363Z,0.10
2023-03-10T07:43:02.225Z,0.13
2023-03-10T07:45:32.262Z,0.40
2023-03-10T07:48:00.335Z,0.30
2023-03-10T07:50:28.546Z,0.00
2023-03-10T07:52:57.393Z,0.50
2023-03-10T07:55:26.265Z,0.30
2023-03-10T07:57:54.488Z,0.23
2023-03-10T08:00:23.036Z,0.20
2023-03-10T08:02:51.227Z,0.20
2023-03-10T08:05:19.812Z,0.60
2023-03-10T08:07:55.876Z,0.30
2023-03-10T08:10:24.320Z,0.20
2023-03-10T08:12:52.580Z,0.10
2023-03-10T08:15:20.538Z,0.10
2023-03-10T08:17:49.284Z,0.20
2023-03-10T08:20:18.210Z,0.10
2023-03-10T08:22:46.580Z,0.07
2023-03-10T08:25:15.212Z,0.10
2023-03-10T08:27:43.765Z,0.30
2023-03-10T08:30:12.585Z,0.10
2023-03-10T08:32:41.364Z,0.20
2023-03-10T08:35:10.190Z,0.33
2023-03-10T08:37:38.698Z,0.10
2023-03-10T08:40:09.450Z,0.00
2023-03-10T08:42:38.464Z,0.10
2023-03-10T08:45:08.700Z,0.20
2023-03-10T08:47:37.708Z,0.20
2023-03-10T08:50:07.251Z,0.37
2023-03-10T08:52:35.421Z,0.20
2023-03-10T08:55:06.395Z,0.30
2023-03-10T08:57:35.221Z,0.30
2023-03-10T09:00:04.020Z,0.40
2023-03-10T09:02:32.091Z,0.20
2023-03-10T09:05:00.429Z,0.40
2023-03-10T09:07:28.365Z,0.10
2023-03-10T09:09:56.585Z,0.20
2023-03-10T09:12:24.832Z,0.10
2023-03-10T09:14:53.734Z,0.20
2023-03-10T09:17:21.989Z,2.80
2023-03-10T09:19:50.135Z,0.13
2023-03-10T09:22:18.178Z,0.10
2023-03-10T09:24:46.395Z,0.30
2023-03-10T09:27:14.413Z,0.30
2023-03-10T09:29:43.789Z,0.87
2023-03-10T09:32:12.462Z,0.93
2023-03-10T09:34:40.939Z,0.27
2023-03-10T09:37:09.279Z,0.33
2023-03-10T09:39:38.161Z,0.30
2023-03-10T09:42:12.007Z,0.50
2023-03-10T09:45:01.804Z,0.43
2023-03-10T09:47:55.763Z,0.50
2023-03-10T09:50:39.333Z,0.80
2023-03-10T09:53:27.297Z,0.50
2023-03-10T09:55:55.643Z,0.40
2023-03-10T09:58:50.287Z,0.80
2023-03-10T10:01:23.721Z,0.30
2023-03-10T10:04:13.817Z,0.50
2023-03-10T10:06:44.625Z,0.50
2023-03-10T10:09:19.062Z,0.87
2023-03-10T10:11:47.374Z,0.40
2023-03-10T10:14:29.916Z,0.60
2023-03-10T10:17:32.482Z,0.50
2023-03-10T10:20:02.313Z,0.40
2023-03-10T10:22:39.203Z,0.70
2023-03-10T10:25:10.624Z,0.40
2023-03-10T10:27:39.087Z,1.13
2023-03-10T10:30:35.228Z,0.50
2023-03-10T10:33:08.200Z,0.63
2023-03-10T10:36:02.554Z,0.77
2023-03-10T10:38:31.824Z,0.47
2023-03-10T10:41:08.279Z,0.57
2023-03-10T10:43:44.818Z,0.50
2023-03-10T10:46:13.995Z,0.43
2023-03-10T10:48:47.663Z,0.50
2023-03-10T10:51:30.330Z,0.40
2023-03-10T10:53:59.395Z,0.47
2023-03-10T10:56:29.979Z,0.47
2023-03-10T10:59:21.171Z,0.60
2023-03-10T11:01:50.615Z,0.50
2023-03-10T11:04:18.737Z,0.43
2023-03-10T11:06:46.970Z,0.50
2023-03-10T11:09:25.376Z,0.40
2023-03-10T11:12:02.174Z,0.50
2023-03-10T11:14:53.889Z,0.47
2023-03-10T11:17:54.696Z,0.50
2023-03-10T11:20:52.019Z,0.53
2023-03-10T11:23:38.472Z,0.30
2023-03-10T11:26:23.455Z,0.57
2023-03-10T11:28:58.487Z,0.30
2023-03-10T11:31:45.676Z,0.40
2023-03-10T11:34:32.601Z,0.27
2023-03-10T11:37:24.271Z,0.50
2023-03-10T11:40:26.372Z,0.30
2023-03-10T11:43:01.106Z,0.20
2023-03-10T11:45:31.022Z,0.20
2023-03-10T11:48:29.725Z,0.30
2023-03-10T11:51:02.102Z,0.30
2023-03-10T11:53:40.550Z,0.20
2023-03-10T11:56:10.311Z,0.20
2023-03-10T11:58:59.886Z,0.20
2023-03-10T12:01:48.586Z,0.30
2023-03-10T12:04:23.739Z,0.20
2023-03-10T12:07:33.818Z,0.20
2023-03-10T12:10:14.806Z,0.30
2023-03-10T12:12:45.562Z,0.20
2023-03-10T12:15:23.510Z,0.37
2023-03-10T12:17:52.278Z,0.17
2023-03-10T12:20:20.352Z,0.20
2023-03-10T12:22:57.833Z,0.20
2023-03-10T12:25:31.724Z,0.30
2023-03-10T12:28:26.447Z,0.20
2023-03-10T12:31:01.542Z,0.40
2023-03-10T12:33:32.963Z,0.10
2023-03-10T12:36:04.197Z,0.17
2023-03-10T12:39:25.271Z,0.23
2023-03-10T12:42:03.140Z,0.30
2023-03-10T12:44:53.150Z,0.00
2023-03-10T12:47:37.479Z,0.20
2023-03-10T12:50:28.483Z,0.10
2023-03-10T12:53:26.161Z,0.10
2023-03-10T12:56:27.339Z,0.10
2023-03-10T12:59:21.931Z,0.10
2023-03-10T13:01:55.861Z,0.30
2023-03-10T13:04:24.972Z,0.20
2023-03-10T13:06:52.989Z,0.40
2023-03-10T13:09:34.711Z,0.20
2023-03-10T13:12:06.210Z,0.20
2023-03-10T13:14:39.629Z,0.10
2023-03-10T13:17:08.456Z,0.20
2023-03-10T13:19:37.950Z,0.30
2023-03-10T13:22:06.271Z,0.10
2023-03-10T13:24:37.336Z,0.20
2023-03-10T13:27:12.900Z,0.23
2023-03-10T13:29:41.764Z,0.20
2023-03-10T13:32:19.701Z,0.27
2023-03-10T13:34:47.939Z,0.10
2023-03-10T13:37:16.182Z,0.20
2023-03-10T13:39:44.693Z,0.20
2023-03-10T13:42:40.737Z,0.10
2023-03-10T13:45:35.908Z,0.20
2023-03-10T13:48:07.703Z,0.20
2023-03-10T13:50:37.024Z,0.10
2023-03-10T13:53:05.848Z,0.10
2023-03-10T13:55:40.873Z,0.10
2023-03-10T13:58:09.859Z,0.10
2023-03-10T14:00:38.665Z,0.20
2023-03-10T14:03:09.118Z,0.50
2023-03-10T14:05:43.444Z,0.00
2023-03-10T14:08:32.529Z,0.60
2023-03-10T14:11:31.244Z,0.30
2023-03-10T14:13:59.786Z,0.10
2023-03-10T14:16:49.763Z,0.23
2023-03-10T14:19:40.705Z,0.30
2023-03-10T14:22:29.958Z,0.30
2023-03-10T14:24:59.308Z,0.00
2023-03-10T14:27:28.382Z,0.20
2023-03-10T14:30:09.274Z,0.20
2023-03-10T14:32:37.507Z,0.30
2023-03-10T14:35:11.434Z,0.10
2023-03-10T14:37:39.703Z,0.10
2023-03-10T14:40:09.372Z,0.20
2023-03-10T14:42:37.426Z,0.13
2023-03-10T14:45:30.592Z,0.10
2023-03-10T14:48:01.766Z,0.20
2023-03-10T14:50:30.545Z,0.20
2023-03-10T14:53:02.170Z,0.10
2023-03-10T14:55:30.537Z,0.30
2023-03-10T14:58:01.087Z,0.20
2023-03-10T15:00:29.999Z,0.27
2023-03-10T15:02:58.382Z,0.30
2023-03-10T15:05:45.113Z,0.40
2023-03-10T15:08:15.766Z,0.20
2023-03-10T15:10:45.024Z,0.40
2023-03-10T15:13:15.221Z,0.20
2023-03-10T15:15:46.030Z,0.27
2023-03-10T15:18:19.220Z,0.60
2023-03-10T15:20:47.539Z,0.30
2023-03-10T15:23:18.092Z,0.30
2023-03-10T15:25:47.353Z,0.57
2023-03-10T15:28:15.890Z,0.40
2023-03-10T15:30:43.842Z,0.60
2023-03-10T15:33:12.531Z,0.70
2023-03-10T15:35:41.224Z,0.50
2023-03-10T15:38:10.293Z,0.77
2023-03-10T15:40:40.115Z,0.67
2023-03-10T15:43:08.429Z,0.57
2023-03-10T15:45:40.249Z,0.50
2023-03-10T15:48:09.049Z,0.67
2023-03-10T15:50:37.445Z,0.70
2023-03-10T15:53:05.610Z,1.20
2023-03-10T15:55:33.766Z,1.00
2023-03-10T15:58:01.978Z,1.90
2023-03-10T16:00:30.222Z,1.37
2023-03-10T16:02:58.325Z,1.03
2023-03-10T16:05:26.457Z,1.00
2023-03-10T16:07:54.565Z,0.87
2023-03-10T16:10:23.020Z,1.00
2023-03-10T16:12:51.251Z,1.97
2023-03-10T16:15:19.232Z,1.33
2023-03-10T16:17:47.635Z,1.43
2023-03-10T16:20:18.179Z,1.37
2023-03-10T16:22:46.640Z,1.20
2023-03-10T16:25:19.647Z,0.90
2023-03-10T16:27:47.879Z,0.90
2023-03-10T16:30:16.950Z,1.03
2023-03-10T16:32:48.781Z,1.10
2023-03-10T16:35:17.857Z,1.17
2023-03-10T16:37:45.990Z,1.23
2023-03-10T16:40:14.710Z,1.60
2023-03-10T16:42:46.860Z,2.07
2023-03-10T16:45:15.240Z,1.87
2023-03-10T16:47:45.467Z,1.77
2023-03-10T16:50:15.849Z,2.20
2023-03-10T16:52:44.371Z,1.70
2023-03-10T16:55:18.523Z,1.43
2023-03-10T16:57:47.248Z,1.70
2023-03-10T17:00:16.142Z,1.37
2023-03-10T17:02:44.219Z,1.80
2023-03-10T17:05:15.311Z,1.93
2023-03-10T17:07:55.153Z,1.40
2023-03-10T17:10:24.119Z,1.20
2023-03-10T17:12:52.684Z,1.20
2023-03-10T17:15:21.011Z,0.90
2023-03-10T17:17:49.352Z,1.30
2023-03-10T17:20:19.777Z,1.67
2023-03-10T17:22:48.198Z,1.23
2023-03-10T17:25:16.411Z,0.80
2023-03-10T17:27:45.052Z,1.53
2023-03-10T17:30:13.927Z,0.90
2023-03-10T17:32:42.995Z,1.60
2023-03-10T17:35:11.730Z,1.20
2023-03-10T17:37:40.020Z,2.10
2023-03-10T17:40:10.741Z,1.43
2023-03-10T17:42:40.141Z,1.83
2023-03-10T17:45:09.148Z,0.90
2023-03-10T17:47:37.232Z,2.30
2023-03-10T17:50:05.656Z,1.70
2023-03-10T17:52:33.768Z,1.77
2023-03-10T17:55:02.542Z,1.93
2023-03-10T17:57:31.386Z,2.40
2023-03-10T17:59:59.394Z,2.37
2023-03-10T18:02:27.685Z,1.93
2023-03-10T18:04:55.947Z,2.30
2023-03-10T18:07:24.229Z,2.00
2023-03-10T18:09:52.226Z,2.00
2023-03-10T18:12:20.758Z,1.47
2023-03-10T18:14:49.914Z,2.13
2023-03-10T18:17:18.040Z,1.30
2023-03-10T18:19:46.185Z,1.83
2023-03-10T18:22:15.250Z,1.43
2023-03-10T18:24:43.308Z,1.73
2023-03-10T18:27:11.486Z,3.50
2023-03-10T18:29:39.466Z,1.80
2023-03-10T18:32:07.609Z,1.47
2023-03-10T18:34:35.669Z,1.60
2023-03-10T18:37:03.779Z,1.47
2023-03-10T18:39:31.741Z,2.03
2023-03-10T18:41:59.869Z,1.90
2023-03-10T18:44:28.006Z,1.70
2023-03-10T18:46:56.155Z,1.70
2023-03-10T18:49:24.294Z,1.83
2023-03-10T18:51:52.346Z,1.30
2023-03-10T18:54:20.432Z,1.43
2023-03-10T18:56:48.531Z,1.50
2023-03-10T18:59:16.570Z,1.37
2023-03-10T19:01:44.862Z,1.00
2023-03-10T19:04:12.984Z,1.60
2023-03-10T19:06:41.028Z,1.47
2023-03-10T19:09:10.034Z,1.83
2023-03-10T19:11:38.875Z,1.67
2023-03-10T19:14:07.869Z,1.60
2023-03-10T19:16:41.038Z,1.80
2023-03-10T19:19:09.091Z,1.53
2023-03-10T19:21:40.233Z,1.60
2023-03-10T19:24:08.747Z,1.50
2023-03-10T19:26:36.873Z,1.57
2023-03-10T19:29:05.207Z,2.13
2023-03-10T19:31:47.023Z,1.20
2023-03-10T19:34:15.831Z,1.87
2023-03-10T19:36:43.932Z,1.40
2023-03-10T19:39:12.140Z,1.30
2023-03-10T19:41:40.202Z,1.10
2023-03-10T19:44:08.470Z,2.17
2023-03-10T19:46:36.579Z,1.20
2023-03-10T19:49:06.623Z,1.57
2023-03-10T19:51:34.912Z,1.23
2023-03-10T19:54:04.937Z,1.30
2023-03-10T19:56:33.091Z,0.90
2023-03-10T19:59:01.209Z,1.13
2023-03-10T20:01:30.157Z,1.30
2023-03-10T20:04:00.509Z,1.37
2023-03-10T20:06:29.029Z,2.00
2023-03-10T20:08:58.962Z,0.90
2023-03-10T20:11:27.482Z,0.80
2023-03-10T20:13:56.177Z,1.23
2023-03-10T20:16:25.246Z,1.77
2023-03-10T20:18:53.476Z,0.80
2023-03-10T20:21:21.718Z,1.10
2023-03-10T20:23:50.004Z,1.20
2023-03-10T20:26:18.271Z,1.37
2023-03-10T20:28:46.771Z,0.93
2023-03-10T20:31:19.818Z,1.17
2023-03-10T20:33:48.106Z,1.03
2023-03-10T20:36:17.113Z,1.33
2023-03-10T20:38:45.384Z,0.87
2023-03-10T20:41:14.435Z,0.80
2023-03-10T20:43:43.589Z,1.00
2023-03-10T20:46:12.320Z,1.47
2023-03-10T20:48:43.808Z,0.73
2023-03-10T20:51:14.944Z,0.80
2023-03-10T20:53:44.019Z,0.57
2023-03-10T20:56:12.551Z,0.70
2023-03-10T20:58:40.766Z,0.57
2023-03-10T21:01:17.407Z,0.90
2023-03-10T21:03:45.826Z,0.50
2023-03-10T21:06:13.826Z,0.80
2023-03-10T21:08:42.287Z,1.20
2023-03-10T21:11:10.486Z,0.80
2023-03-10T21:13:38.824Z,0.70
2023-03-10T21:16:08.000Z,0.83
2023-03-10T21:18:36.354Z,0.90
2023-03-10T21:21:08.503Z,0.70
2023-03-10T21:23:37.582Z,0.70
2023-03-10T21:26:13.036Z,0.60
2023-03-10T21:28:41.365Z,0.70
2023-03-10T21:31:09.589Z,0.70
2023-03-10T21:33:37.699Z,0.83
2023-03-10T21:36:06.227Z,0.70
2023-03-10T21:38:34.378Z,0.50
2023-03-10T21:41:02.726Z,0.50
2023-03-10T21:43:31.205Z,0.50
2023-03-10T21:45:59.299Z,0.77
2023-03-10T21:48:27.553Z,0.50
2023-03-10T21:50:55.720Z,0.60
2023-03-10T21:53:27.735Z,0.70
2023-03-10T21:55:55.945Z,0.77
2023-03-10T21:58:26.174Z,0.40
2023-03-10T22:00:56.149Z,0.63
2023-03-10T22:03:25.385Z,0.50
2023-03-10T22:05:53.657Z,0.50
2023-03-10T22:08:23.160Z,0.57
2023-03-10T22:10:51.618Z,0.60
2023-03-10T22:13:20.093Z,0.43
2023-03-10T22:15:48.680Z,0.60
2023-03-10T22:18:16.894Z,0.60
2023-03-10T22:20:45.221Z,0.50
2023-03-10T22:23:14.283Z,0.90
2023-03-10T22:25:42.543Z,0.57
2023-03-10T22:28:11.117Z,0.83
2023-03-10T22:30:39.489Z,0.53
2023-03-10T22:33:10.506Z,0.50
2023-03-10T22:35:38.894Z,0.50
2023-03-10T22:38:08.517Z,0.63
2023-03-10T22:40:36.696Z,0.50
2023-03-10T22:43:05.032Z,0.40
2023-03-10T22:45:33.581Z,0.60
2023-03-10T22:48:03.868Z,0.60
2023-03-10T22:50:34.538Z,0.60
2023-03-10T22:53:03.328Z,0.60
2023-03-10T22:55:37.281Z,0.50
2023-03-10T22:58:06.696Z,0.70
2023-03-10T23:00:35.270Z,0.53
2023-03-10T23:03:03.772Z,0.50
2023-03-10T23:05:32.026Z,0.70
2023-03-10T23:08:00.525Z,0.60
2023-03-10T23:10:30.489Z,1.00
2023-03-10T23:13:02.915Z,0.70
2023-03-10T23:15:33.114Z,0.80
2023-03-10T23:18:01.431Z,0.83
2023-03-10T23:20:31.680Z,0.80
2023-03-10T23:23:01.201Z,0.80
2023-03-10T23:25:37.044Z,0.70
2023-03-10T23:28:06.191Z,0.80
2023-03-10T23:30:34.973Z,0.53
2023-03-10T23:33:03.218Z,0.97
2023-03-10T23:35:33.102Z,0.60
2023-03-10T23:38:01.889Z,0.63
2023-03-10T23:40:30.588Z,0.70
2023-03-10T23:42:59.269Z,0.77
2023-03-10T23:45:28.617Z,0.80
2023-03-10T23:47:56.909Z,0.80
2023-03-10T23:50:34.192Z,0.90
2023-03-10T23:53:02.462Z,0.80
2023-03-10T23:55:32.258Z,1.00
2023-03-10T23:58:00.110Z,0.80
